Terminal Aerodrome Forecast
Issued by NWS

Home | Current Version | Previous Version | Text Only | Print | Product List | Glossary On
Versions: 1 2 3 4 5 6 7 8 9 10 11 12 13 14 15 16 17 18 19 20
000
FTUS41 KCLE 301100
TAFFDY
TAF
KFDY 301120Z 3012/3112 17008KT P6SM BKN250
     FM301400 21012G22KT P6SM SCT060 OVC120
     FM301800 22014G22KT P6SM VCTS BKN060CB
     FM310000 23009KT 6SM -TSRA OVC035CB
     FM310700 21008KT 4SM BR OVC015=

USA.gov is the U.S. government's official web portal to all federal, state and local government web resources and services.